Flight Track Log - Related Links

Times and Time Zones

All times are in EDT time to prevent confusion due to time zone crossing. See the AIE352 flight status page for this flight to view local times or setup timezone preferences in your user account.

Time Position Orientation Groundspeed Altitude Reporting Facility
EDT Latitude Longitude Course Direction KTS MPH feet Rate Location/Type
Sat 12:35:39 PM 50.1000 -77.0667 North 410 472 31,000  Level Montreal Center
Sat 12:36:39 PM 50.2333 -77.0500 North 420 483 31,000  Level Montreal Center
Sat 12:37:39 PM 50.3333 -77.0167 12° North 420 483 31,000  Level Montreal Center
Sat 12:38:39 PM 50.4833 -76.9667 12° North 420 483 31,000  Level Montreal Center
Sat 12:39:39 PM 50.5833 -76.9500 North 420 483 31,000  Level Montreal Center
Sat 12:40:39 PM 50.7167 -76.9167 North 420 483 31,000  Level Montreal Center
Sat 12:41:39 PM 50.8167 -76.9000 North 420 483 31,000  Level Montreal Center
Sat 12:42:39 PM 50.9333 -76.8667 10° North 420 483 31,000  Level Montreal Center
Sat 12:43:39 PM 51.0500 -76.8167 15° North 430 495 31,000  Level Montreal Center
Sat 12:44:39 PM 51.1667 -76.8000 North 430 495 31,000  Level Montreal Center
Sat 12:45:39 PM 51.2833 -76.7667 10° North 430 495 31,000  Level Montreal Center
Sat 12:46:39 PM 51.4000 -76.7500 North 420 483 31,000  Level Montreal Center
Sat 12:47:39 PM 51.5167 -76.7167 10° North 430 495 31,000  Level Montreal Center
Sat 12:48:39 PM 51.6333 -76.6667 15° North 430 495 31,000  Level Montreal Center
Sat 12:49:39 PM 51.7667 -76.6500 North 420 483 31,000  Level Montreal Center
Sat 12:50:39 PM 51.8667 -76.6167 12° North 430 495 31,000  Level Montreal Center
Sat 12:51:39 PM 52.0000 -76.6000 North 430 495 31,000  Level Montreal Center
Sat 12:52:39 PM 52.1167 -76.5667 10° North 430 495 31,000  Level Montreal Center
Sat 12:53:39 PM 52.2333 -76.5333 10° North 430 495 31,000  Level Montreal Center
Sat 12:54:39 PM 52.3500 -76.4833 15° North 430 495 31,000  Level Montreal Center
Sat 12:55:39 PM 52.4667 -76.4667 North 430 495 31,000  Level Montreal Center
Sat 12:56:39 PM 52.5833 -76.4333 10° North 430 495 31,000  Level Montreal Center
Sat 12:57:39 PM 52.7000 -76.4167 North 430 495 31,000  Level Montreal Center
Sat 12:58:39 PM 52.8167 -76.3833 10° North 430 495 31,000  Level Montreal Center
Sat 12:59:39 PM 52.9333 -76.3333 14° North 430 495 31,000  Level Montreal Center
Sat 01:00:39 PM 53.0500 -76.3000 10° North 430 495 31,000  Level Montreal Center
Sat 01:01:39 PM 53.1833 -76.2667 North 430 495 31,000  Level Montreal Center
Sat 01:02:39 PM 53.3000 -76.2500 North 430 495 31,000  Level Montreal Center
Sat 01:03:39 PM 53.4167 -76.2167 10° North 430 495 31,000  Level Montreal Center
Sat 01:04:39 PM 53.5500 -76.1667 13° North 430 495 31,000  Level Montreal Center
Sat 01:05:39 PM 53.6667 -76.1333 10° North 440 506 31,000  Level Montreal Center
Sat 01:06:39 PM 53.7833 -76.1000 10° North 440 506 31,000  Level Montreal Center
Sat 01:07:39 PM 53.9000 -76.0833 North 440 506 31,000  Level Montreal Center
Sat 01:08:39 PM 54.0167 -76.0500 10° North 430 495 31,000  Level Montreal Center
Sat 01:09:39 PM 54.1333 -76.0000 14° North 430 495 31,000  Level Montreal Center
Sat 01:10:39 PM 54.2500 -75.9667 North 430 495 31,000  Level Montreal Center
Sat 01:11:39 PM 54.3667 -75.9333 North 430 495 31,000  Level Montreal Center
Sat 01:12:39 PM 54.5000 -75.9000 North 430 495 31,000  Level Montreal Center
Sat 01:13:39 PM 54.6167 -75.8500 14° North 430 495 31,000  Level Montreal Center
Sat 01:14:39 PM 54.7333 -75.8167 North 430 495 31,000  Level Montreal Center
Sat 01:15:39 PM 54.8500 -75.7833 North 430 495 31,000  Level Montreal Center
Sat 01:16:39 PM 54.9667 -75.7500 North 440 506 31,000  Level Montreal Center
Sat 01:17:39 PM 55.0833 -75.7333 North 430 495 31,000  Level Montreal Center
Sat 01:18:39 PM 55.2000 -75.6667 18° North 440 506 31,000  Level Montreal Center
Sat 01:19:39 PM 55.3500 -75.6333 North 440 506 31,000  Level Montreal Center
Sat 01:20:39 PM 55.4500 -75.6000 11° North 430 495 31,000  Level Montreal Center
Sat 01:21:39 PM 55.5833 -75.5667 North 430 495 31,000  Level Montreal Center
Sat 01:22:39 PM 55.7000 -75.5167 14° North 430 495 31,000  Level Montreal Center
Sat 01:23:39 PM 55.8167 -75.4833 North 430 495 31,000  Level Montreal Center
Sat 01:24:39 PM 55.9333 -75.4500 North 430 495 31,000  Level Montreal Center
Sat 01:25:39 PM 56.0500 -75.4167 North 430 495 31,000  Level Montreal Center
Sat 01:26:39 PM 56.1667 -75.3833 North 430 495 31,000  Level Montreal Center
Sat 01:27:39 PM 56.2833 -75.3167 18° North 430 495 31,000  Level Montreal Center
Sat 01:28:39 PM 56.4000 -75.3000 North 430 495 31,000  Level Montreal Center
Sat 01:31:00 PM 56.7809 -75.1806 10° North  Level FlightAware Approximate
Sat 01:32:25 PM 56.8500 -75.1667 10° North 410 472 31,000  Level Montreal Center
Sat 01:33:25 PM 56.9667 -75.1333 North 420 483 31,000  Level Montreal Center
Sat 01:34:25 PM 57.0833 -75.0667 17° North 430 495 31,000  Level Montreal Center
Sat 01:36:00 PM 57.3400 -74.9852 10° North  Level FlightAware Approximate
Sat 01:38:00 PM 57.9146 -74.8100 10° North  Level FlightAware Approximate
Sat 01:40:53 PM 57.8667 -74.8167 10° North 530 610 31,000  Level Montreal Center
Sat 01:41:53 PM 57.9667 -74.7833 10° North 430 495 31,000  Level Montreal Center
Sat 01:42:53 PM 58.0833 -74.7500 North 430 495 31,000  Level Montreal Center
Sat 01:43:00 PM 58.4739 -74.6107 10° North  Level FlightAware Approximate
Sat 01:43:53 PM 58.2000 -74.6833 17° North 430 495 31,000  Level Montreal Center
Sat 01:44:00 PM 58.6358 -74.5552 10° North  Level FlightAware Approximate
Sat 01:44:53 PM 58.3167 -74.6500 North 430 495 31,000  Level Montreal Center
Sat 01:45:00 PM 58.7977 -74.4992 10° North  Level FlightAware Approximate
Sat 01:45:53 PM 58.4333 -74.6167 North 430 495 31,000  Level Montreal Center
Sat 01:46:00 PM 58.9595 -74.4427 10° North  Level FlightAware Approximate
Sat 01:46:53 PM 58.5500 -74.5667 13° North 420 483 31,000  Level Montreal Center
Sat 01:47:53 PM 58.6667 -74.5333 North 430 495 31,000  Level Montreal Center
Sat 01:48:53 PM 58.7833 -74.4667 16° North 430 495 31,000  Level Montreal Center
Sat 01:49:53 PM 58.9000 -74.4333 North 430 495 31,000  Level Montreal Center
Sat 01:50:53 PM 59.0167 -74.4000 North 430 495 31,000  Level Montreal Center
Sat 01:51:53 PM 59.1333 -74.3500 12° North 430 495 31,000  Level Montreal Center
Sat 01:52:53 PM 59.2667 -74.2833 14° North 440 506 31,000  Level Montreal Center
Sat 01:53:53 PM 59.3833 -74.2500 North 430 495 31,000  Level Montreal Center
Sat 01:54:53 PM 59.5000 -74.2000 12° North 430 495 31,000  Level Montreal Center
Sat 01:55:53 PM 59.6167 -74.1667 North 430 495 31,000  Level Montreal Center
Sat 01:56:53 PM 59.7333 -74.1333 North 440 506 31,000  Level Montreal Center
Sat 01:57:53 PM 59.8500 -74.0833 12° North 430 495 31,000  Level Montreal Center
Sat 01:58:53 PM 59.9667 -74.0167 16° North 440 506 31,000  Level Montreal Center
Sat 02:00:00 PM 60.1491 -73.9746 North  Level FlightAware Approximate
Sat 02:07:00 PM 61.2766 -73.4930 12° North  Level FlightAware Approximate
Sat 02:08:00 PM 61.4361 -73.4096 15° North  Level FlightAware Approximate
Sat 02:09:00 PM 61.5969 -73.3379 11° North  Level FlightAware Approximate
Sat 02:10:00 PM 61.6500 -73.3167 11° North  Level FlightAware Approximate
Sat 02:11:00 PM 61.6500 -73.3167 11° North  Level FlightAware Approximate
Sat 02:12:00 PM 61.6500 -73.3167 11° North  Level FlightAware Approximate
Sat 02:13:00 PM 61.6500 -73.3167 11° North  Level FlightAware Approximate
Sat 02:14:00 PM 61.6500 -73.3167 11° North  Level FlightAware Approximate
Sat 02:15:00 PM 61.6500 -73.3167 11° North  Level FlightAware Approximate
Sat 02:16:00 PM 61.6500 -73.3167 11° North  Level FlightAware Approximate
Sat 02:17:00 PM 61.6500 -73.3167 11° North  Level FlightAware Approximate
Sat 02:18:00 PM 61.6500 -73.3167 11° North  Level FlightAware Approximate
Sat 02:19:00 PM 61.6500 -73.3167 11° North  Level FlightAware Approximate
Sat 02:20:00 PM 61.6500 -73.3167 11° North  Level FlightAware Approximate
Sat 02:21:00 PM 61.6500 -73.3167 11° North  Level FlightAware Approximate
Sat 02:22:00 PM 61.6500 -73.3167 11° North  Level FlightAware Approximate
Sat 02:23:00 PM 61.6500 -73.3167 11° North  Level FlightAware Approximate
Sat 02:24:00 PM 61.6500 -73.3167 11° North  Level FlightAware Approximate
Sat 02:25:00 PM 61.6500 -73.3167 11° North  Level FlightAware Approximate
Sat 02:26:00 PM 61.6500 -73.3167 11° North  Level FlightAware Approximate
Sat 02:27:00 PM 61.6500 -73.3167 11° North  Level FlightAware Approximate
Sat 02:28:00 PM 61.6500 -73.3167 11° North  Level FlightAware Approximate

Login

Don't have an account? Register now (free) for customized features, flight alerts, and more!